Pagina principale
METAR-TAF:

METAR-TAF

Aeroporti :

Pápa, Ungheria

latitudine: 47-12N, longitudine: 017-30E, altezza: 145 m

Osservazione

Il bollettino è stato emesso 35 minuti fa, alle 10:45 UTC
Vento 2 kt da nord
Temperature 12°C
Umidità 54%
Pressione 1024 hPa
Visibilità 10 km o più
nessuna nube inferiore a 1500 m e nessun cumulonembo

METAR: LHPA 261045Z 35002KT CAVOK 12/03 Q1024 NOSIG RMK BLU

Ora: 13:20 (11:20 UTC)

Previsione

Il bollettino è stato emesso 6 ore e 5 minuti fa, alle 05:15 UTC
Previsione valida dal 26 alle 06 UTC al 27 alle 06 UTC
Vento 3 kt da direzioni variabili
Visibilità 10 km o più
nessuna nube inferiore a 1500 m e nessun cumulonembo
Evoluzione graduale
dal 26 alle 10 UTC al 26 alle 12 UTC
Vento 5 kt da nord
Temporaneamente
dal 27 alle 00 UTC al 27 alle 06 UTC
Visibilità: 5000 m
foschia

TAF: LHPA 260515Z 2606/2706 VRB03KT CAVOK BECMG 2610/2612 36005KT TEMPO 2700/2706 5000 BR NSC

Osservazioni e previsioni meteorologiche di più di 4000 aeroporti (messaggi METAR e TAF).

Le stazioni disponibili sono rappresentate dai dischi gialli e rossi sulla carta.

Puntare il mouse per vedere il nome della stazione.

Clicca sopra per visualizzare le osservazioni e previsioni meteorologiche.

Per cambiare la mappa : fare clic sui pulsanti verdi con una croce nera per ingrandire, il pulsante verde con un trattino per diminuire, o sulla freccia verde per le mappe adiacenti.


METAR-TAF: